sensor_id;sensor_type;location;lat;lon;timestamp;P1;durP1;ratioP1;P2;durP2;ratioP2
74741;SDS011;76291;48.288;16.314;2024-03-07T00:00:05;17.4;;;14.2;;
74741;SDS011;76291;48.288;16.314;2024-03-07T00:01:01;17.4;;;14.2;;
74741;SDS011;76291;48.288;16.314;2024-03-07T00:02:01;18.5;;;13.4;;
74741;SDS011;76291;48.288;16.314;2024-03-07T00:03:01;18.5;;;13.4;;
74741;SDS011;76291;48.288;16.314;2024-03-07T00:04:01;18.5;;;13.4;;
74741;SDS011;76291;48.288;16.314;2024-03-07T00:05:01;18.5;;;13.4;;
74741;SDS011;76291;48.288;16.314;2024-03-07T00:06:01;18.5;;;13.4;;
74741;SDS011;76291;48.288;16.314;2024-03-07T00:07:01;20.1;;;15.7;;
74741;SDS011;76291;48.288;16.314;2024-03-07T00:08:01;20.1;;;15.7;;
74741;SDS011;76291;48.288;16.314;2024-03-07T00:09:01;20.1;;;15.7;;
74741;SDS011;76291;48.288;16.314;2024-03-07T00:10:02;20.1;;;15.7;;
74741;SDS011;76291;48.288;16.314;2024-03-07T00:12:02;19.4;;;15.1;;
74741;SDS011;76291;48.288;16.314;2024-03-07T00:13:01;19.4;;;15.1;;
74741;SDS011;76291;48.288;16.314;2024-03-07T00:14:01;19.4;;;15.1;;
74741;SDS011;76291;48.288;16.314;2024-03-07T00:15:03;19.4;;;15.1;;
74741;SDS011;76291;48.288;16.314;2024-03-07T00:16:01;19.4;;;15.1;;
74741;SDS011;76291;48.288;16.314;2024-03-07T00:17:01;19.4;;;15.4;;
74741;SDS011;76291;48.288;16.314;2024-03-07T00:18:01;19.4;;;15.4;;
74741;SDS011;76291;48.288;16.314;2024-03-07T00:19:01;19.4;;;15.4;;
74741;SDS011;76291;48.288;16.314;2024-03-07T00:20:02;19.4;;;15.4;;
74741;SDS011;76291;48.288;16.314;2024-03-07T00:21:01;19.4;;;15.4;;
74741;SDS011;76291;48.288;16.314;2024-03-07T00:22:01;16.9;;;13.8;;
74741;SDS011;76291;48.288;16.314;2024-03-07T00:23:01;16.9;;;13.8;;
74741;SDS011;76291;48.288;16.314;2024-03-07T00:24:01;16.9;;;13.8;;
74741;SDS011;76291;48.288;16.314;2024-03-07T00:25:01;16.9;;;13.8;;
74741;SDS011;76291;48.288;16.314;2024-03-07T00:26:01;16.9;;;13.8;;
74741;SDS011;76291;48.288;16.314;2024-03-07T00:27:00;16.9;;;13.1;;
74741;SDS011;76291;48.288;16.314;2024-03-07T00:28:00;16.9;;;13.1;;
74741;SDS011;76291;48.288;16.314;2024-03-07T00:29:00;16.9;;;13.1;;
74741;SDS011;76291;48.288;16.314;2024-03-07T00:30:00;16.9;;;13.1;;
74741;SDS011;76291;48.288;16.314;2024-03-07T00:31:00;16.9;;;13.1;;
74741;SDS011;76291;48.288;16.314;2024-03-07T00:32:00;18.6;;;13.8;;
74741;SDS011;76291;48.288;16.314;2024-03-07T00:33:00;18.6;;;13.8;;
74741;SDS011;76291;48.288;16.314;2024-03-07T00:34:00;18.6;;;13.8;;
74741;SDS011;76291;48.288;16.314;2024-03-07T00:35:00;18.6;;;13.8;;
74741;SDS011;76291;48.288;16.314;2024-03-07T00:36:00;18.6;;;13.8;;
74741;SDS011;76291;48.288;16.314;2024-03-07T00:37:00;17.8;;;13.5;;
74741;SDS011;76291;48.288;16.314;2024-03-07T00:38:00;17.8;;;13.5;;
74741;SDS011;76291;48.288;16.314;2024-03-07T00:39:00;17.8;;;13.5;;
74741;SDS011;76291;48.288;16.314;2024-03-07T00:40:00;17.8;;;13.5;;
74741;SDS011;76291;48.288;16.314;2024-03-07T00:41:01;17.8;;;13.5;;
74741;SDS011;76291;48.288;16.314;2024-03-07T00:42:00;18.9;;;13.4;;
74741;SDS011;76291;48.288;16.314;2024-03-07T00:43:00;18.9;;;13.4;;
74741;SDS011;76291;48.288;16.314;2024-03-07T00:44:00;18.9;;;13.4;;
74741;SDS011;76291;48.288;16.314;2024-03-07T00:45:00;18.9;;;13.4;;
74741;SDS011;76291;48.288;16.314;2024-03-07T00:46:00;18.9;;;13.4;;
74741;SDS011;76291;48.288;16.314;2024-03-07T00:47:00;17.0;;;13.4;;
74741;SDS011;76291;48.288;16.314;2024-03-07T00:48:00;17.0;;;13.4;;
74741;SDS011;76291;48.288;16.314;2024-03-07T00:49:00;17.0;;;13.4;;
74741;SDS011;76291;48.288;16.314;2024-03-07T00:50:00;17.0;;;13.4;;
74741;SDS011;76291;48.288;16.314;2024-03-07T00:51:03;17.0;;;13.4;;
74741;SDS011;76291;48.288;16.314;2024-03-07T00:52:00;17.2;;;12.9;;
74741;SDS011;76291;48.288;16.314;2024-03-07T00:53:00;17.2;;;12.9;;
74741;SDS011;76291;48.288;16.314;2024-03-07T00:54:00;17.2;;;12.9;;
74741;SDS011;76291;48.288;16.314;2024-03-07T00:55:00;17.2;;;12.9;;
74741;SDS011;76291;48.288;16.314;2024-03-07T00:56:00;17.2;;;12.9;;
74741;SDS011;76291;48.288;16.314;2024-03-07T00:57:00;18.4;;;14.0;;
74741;SDS011;76291;48.288;16.314;2024-03-07T00:58:00;18.4;;;14.0;;
74741;SDS011;76291;48.288;16.314;2024-03-07T00:59:00;18.4;;;14.0;;
74741;SDS011;76291;48.288;16.314;2024-03-07T01:00:00;18.4;;;14.0;;
74741;SDS011;76291;48.288;16.314;2024-03-07T01:01:00;18.4;;;14.0;;
74741;SDS011;76291;48.288;16.314;2024-03-07T01:02:00;17.5;;;12.8;;
74741;SDS011;76291;48.288;16.314;2024-03-07T01:03:00;17.5;;;12.8;;
74741;SDS011;76291;48.288;16.314;2024-03-07T01:04:00;17.5;;;12.8;;
74741;SDS011;76291;48.288;16.314;2024-03-07T01:05:00;17.5;;;12.8;;
74741;SDS011;76291;48.288;16.314;2024-03-07T01:06:00;17.5;;;12.8;;
74741;SDS011;76291;48.288;16.314;2024-03-07T01:07:00;18.1;;;13.8;;
74741;SDS011;76291;48.288;16.314;2024-03-07T01:08:00;18.1;;;13.8;;
74741;SDS011;76291;48.288;16.314;2024-03-07T01:09:00;18.1;;;13.8;;
74741;SDS011;76291;48.288;16.314;2024-03-07T01:10:03;18.1;;;13.8;;
74741;SDS011;76291;48.288;16.314;2024-03-07T01:11:00;18.1;;;13.8;;
74741;SDS011;76291;48.288;16.314;2024-03-07T01:12:01;17.7;;;13.0;;
74741;SDS011;76291;48.288;16.314;2024-03-07T01:13:00;17.7;;;13.0;;
74741;SDS011;76291;48.288;16.314;2024-03-07T01:14:00;17.7;;;13.0;;
74741;SDS011;76291;48.288;16.314;2024-03-07T01:15:00;17.7;;;13.0;;
74741;SDS011;76291;48.288;16.314;2024-03-07T01:16:00;17.7;;;13.0;;
74741;SDS011;76291;48.288;16.314;2024-03-07T01:17:00;18.1;;;14.3;;
74741;SDS011;76291;48.288;16.314;2024-03-07T01:18:00;18.1;;;14.3;;
74741;SDS011;76291;48.288;16.314;2024-03-07T01:19:00;18.1;;;14.3;;
74741;SDS011;76291;48.288;16.314;2024-03-07T01:20:00;18.1;;;14.3;;
74741;SDS011;76291;48.288;16.314;2024-03-07T01:21:01;18.1;;;14.3;;
74741;SDS011;76291;48.288;16.314;2024-03-07T01:22:00;20.2;;;14.0;;
74741;SDS011;76291;48.288;16.314;2024-03-07T01:23:00;20.2;;;14.0;;
74741;SDS011;76291;48.288;16.314;2024-03-07T01:24:00;20.2;;;14.0;;
74741;SDS011;76291;48.288;16.314;2024-03-07T01:25:00;20.2;;;14.0;;
74741;SDS011;76291;48.288;16.314;2024-03-07T01:26:00;20.2;;;14.0;;
74741;SDS011;76291;48.288;16.314;2024-03-07T01:27:00;19.2;;;13.9;;
74741;SDS011;76291;48.288;16.314;2024-03-07T01:28:00;19.2;;;13.9;;
74741;SDS011;76291;48.288;16.314;2024-03-07T01:29:00;19.2;;;13.9;;
74741;SDS011;76291;48.288;16.314;2024-03-07T01:30:00;19.2;;;13.9;;
74741;SDS011;76291;48.288;16.314;2024-03-07T01:31:00;19.2;;;13.9;;
74741;SDS011;76291;48.288;16.314;2024-03-07T01:32:00;18.5;;;14.4;;
74741;SDS011;76291;48.288;16.314;2024-03-07T01:33:03;18.5;;;14.4;;
74741;SDS011;76291;48.288;16.314;2024-03-07T01:34:00;18.5;;;14.4;;
74741;SDS011;76291;48.288;16.314;2024-03-07T01:35:00;18.5;;;14.4;;
74741;SDS011;76291;48.288;16.314;2024-03-07T01:36:00;18.5;;;14.4;;
74741;SDS011;76291;48.288;16.314;2024-03-07T01:37:00;19.4;;;15.0;;
74741;SDS011;76291;48.288;16.314;2024-03-07T01:38:01;19.4;;;15.0;;
74741;SDS011;76291;48.288;16.314;2024-03-07T01:39:00;19.4;;;15.0;;
74741;SDS011;76291;48.288;16.314;2024-03-07T01:40:01;19.4;;;15.0;;
74741;SDS011;76291;48.288;16.314;2024-03-07T01:41:00;19.4;;;15.0;;
74741;SDS011;76291;48.288;16.314;2024-03-07T01:42:00;21.4;;;16.2;;
74741;SDS011;76291;48.288;16.314;2024-03-07T01:43:01;21.4;;;16.2;;
74741;SDS011;76291;48.288;16.314;2024-03-07T01:44:00;21.4;;;16.2;;
74741;SDS011;76291;48.288;16.314;2024-03-07T01:45:00;21.4;;;16.2;;
74741;SDS011;76291;48.288;16.314;2024-03-07T01:46:03;21.4;;;16.2;;
74741;SDS011;76291;48.288;16.314;2024-03-07T01:47:00;21.2;;;16.1;;
74741;SDS011;76291;48.288;16.314;2024-03-07T01:48:00;21.2;;;16.1;;
74741;SDS011;76291;48.288;16.314;2024-03-07T01:49:00;21.2;;;16.1;;
74741;SDS011;76291;48.288;16.314;2024-03-07T01:50:00;21.2;;;16.1;;
74741;SDS011;76291;48.288;16.314;2024-03-07T01:51:00;21.2;;;16.1;;
74741;SDS011;76291;48.288;16.314;2024-03-07T01:52:01;22.5;;;16.9;;
74741;SDS011;76291;48.288;16.314;2024-03-07T01:53:00;22.5;;;16.9;;
74741;SDS011;76291;48.288;16.314;2024-03-07T01:54:00;22.5;;;16.9;;
74741;SDS011;76291;48.288;16.314;2024-03-07T01:55:00;22.5;;;16.9;;
74741;SDS011;76291;48.288;16.314;2024-03-07T01:56:02;22.5;;;16.9;;
74741;SDS011;76291;48.288;16.314;2024-03-07T01:57:01;23.4;;;17.6;;
74741;SDS011;76291;48.288;16.314;2024-03-07T01:58:02;23.4;;;17.6;;
74741;SDS011;76291;48.288;16.314;2024-03-07T01:59:01;23.4;;;17.6;;
74741;SDS011;76291;48.288;16.314;2024-03-07T02:00:01;23.4;;;17.6;;
74741;SDS011;76291;48.288;16.314;2024-03-07T02:01:00;23.4;;;17.6;;
74741;SDS011;76291;48.288;16.314;2024-03-07T02:02:00;24.7;;;18.7;;
74741;SDS011;76291;48.288;16.314;2024-03-07T02:03:00;24.7;;;18.7;;
74741;SDS011;76291;48.288;16.314;2024-03-07T02:04:00;24.7;;;18.7;;
74741;SDS011;76291;48.288;16.314;2024-03-07T02:05:01;24.7;;;18.7;;
74741;SDS011;76291;48.288;16.314;2024-03-07T02:06:00;24.7;;;18.7;;
74741;SDS011;76291;48.288;16.314;2024-03-07T02:07:00;26.4;;;18.4;;
74741;SDS011;76291;48.288;16.314;2024-03-07T02:08:00;26.4;;;18.4;;
74741;SDS011;76291;48.288;16.314;2024-03-07T02:09:00;26.4;;;18.4;;
74741;SDS011;76291;48.288;16.314;2024-03-07T02:10:01;26.4;;;18.4;;
74741;SDS011;76291;48.288;16.314;2024-03-07T02:11:00;26.4;;;18.4;;
74741;SDS011;76291;48.288;16.314;2024-03-07T02:12:00;27.5;;;18.9;;
74741;SDS011;76291;48.288;16.314;2024-03-07T02:13:00;27.5;;;18.9;;
74741;SDS011;76291;48.288;16.314;2024-03-07T02:14:00;27.5;;;18.9;;
74741;SDS011;76291;48.288;16.314;2024-03-07T02:15:00;27.5;;;18.9;;
74741;SDS011;76291;48.288;16.314;2024-03-07T02:16:00;27.5;;;18.9;;
74741;SDS011;76291;48.288;16.314;2024-03-07T02:17:00;25.8;;;19.1;;
74741;SDS011;76291;48.288;16.314;2024-03-07T02:18:00;25.8;;;19.1;;
74741;SDS011;76291;48.288;16.314;2024-03-07T02:19:00;25.8;;;19.1;;
74741;SDS011;76291;48.288;16.314;2024-03-07T02:20:00;25.8;;;19.1;;
74741;SDS011;76291;48.288;16.314;2024-03-07T02:21:00;25.8;;;19.1;;
74741;SDS011;76291;48.288;16.314;2024-03-07T02:22:00;25.8;;;18.8;;
74741;SDS011;76291;48.288;16.314;2024-03-07T02:23:00;25.8;;;18.8;;
74741;SDS011;76291;48.288;16.314;2024-03-07T02:24:00;25.8;;;18.8;;
74741;SDS011;76291;48.288;16.314;2024-03-07T02:25:00;25.8;;;18.8;;
74741;SDS011;76291;48.288;16.314;2024-03-07T02:26:00;25.8;;;18.8;;
74741;SDS011;76291;48.288;16.314;2024-03-07T02:27:00;27.6;;;19.1;;
74741;SDS011;76291;48.288;16.314;2024-03-07T02:28:00;27.6;;;19.1;;
74741;SDS011;76291;48.288;16.314;2024-03-07T02:29:00;27.6;;;19.1;;
74741;SDS011;76291;48.288;16.314;2024-03-07T02:30:00;27.6;;;19.1;;
74741;SDS011;76291;48.288;16.314;2024-03-07T02:31:00;27.6;;;19.1;;
74741;SDS011;76291;48.288;16.314;2024-03-07T02:32:00;25.0;;;17.5;;
74741;SDS011;76291;48.288;16.314;2024-03-07T02:33:00;25.0;;;17.5;;
74741;SDS011;76291;48.288;16.314;2024-03-07T02:34:03;25.0;;;17.5;;
74741;SDS011;76291;48.288;16.314;2024-03-07T02:35:00;25.0;;;17.5;;
74741;SDS011;76291;48.288;16.314;2024-03-07T02:36:02;25.0;;;17.5;;
74741;SDS011;76291;48.288;16.314;2024-03-07T02:37:00;24.8;;;17.5;;
74741;SDS011;76291;48.288;16.314;2024-03-07T02:38:01;24.8;;;17.5;;
74741;SDS011;76291;48.288;16.314;2024-03-07T02:39:00;24.8;;;17.5;;
74741;SDS011;76291;48.288;16.314;2024-03-07T02:40:00;24.8;;;17.5;;
74741;SDS011;76291;48.288;16.314;2024-03-07T02:41:00;24.8;;;17.5;;
74741;SDS011;76291;48.288;16.314;2024-03-07T02:42:00;25.4;;;18.3;;
74741;SDS011;76291;48.288;16.314;2024-03-07T02:43:00;25.4;;;18.3;;
74741;SDS011;76291;48.288;16.314;2024-03-07T02:44:00;25.4;;;18.3;;
74741;SDS011;76291;48.288;16.314;2024-03-07T02:45:00;25.4;;;18.3;;
74741;SDS011;76291;48.288;16.314;2024-03-07T02:46:00;25.4;;;18.3;;
74741;SDS011;76291;48.288;16.314;2024-03-07T02:47:00;23.5;;;17.1;;
74741;SDS011;76291;48.288;16.314;2024-03-07T02:48:00;23.5;;;17.1;;
74741;SDS011;76291;48.288;16.314;2024-03-07T02:49:00;23.5;;;17.1;;
74741;SDS011;76291;48.288;16.314;2024-03-07T02:50:00;23.5;;;17.1;;
74741;SDS011;76291;48.288;16.314;2024-03-07T02:51:00;23.5;;;17.1;;
74741;SDS011;76291;48.288;16.314;2024-03-07T02:52:00;23.6;;;16.7;;
74741;SDS011;76291;48.288;16.314;2024-03-07T02:53:00;23.6;;;16.7;;
74741;SDS011;76291;48.288;16.314;2024-03-07T02:54:00;23.6;;;16.7;;
74741;SDS011;76291;48.288;16.314;2024-03-07T02:55:00;23.6;;;16.7;;
74741;SDS011;76291;48.288;16.314;2024-03-07T02:56:00;23.6;;;16.7;;
74741;SDS011;76291;48.288;16.314;2024-03-07T02:57:00;23.4;;;16.9;;
74741;SDS011;76291;48.288;16.314;2024-03-07T02:58:00;23.4;;;16.9;;
74741;SDS011;76291;48.288;16.314;2024-03-07T02:59:00;23.4;;;16.9;;
74741;SDS011;76291;48.288;16.314;2024-03-07T03:00:00;23.4;;;16.9;;
74741;SDS011;76291;48.288;16.314;2024-03-07T03:01:00;23.4;;;16.9;;
74741;SDS011;76291;48.288;16.314;2024-03-07T03:02:00;21.0;;;15.4;;
74741;SDS011;76291;48.288;16.314;2024-03-07T03:03:00;21.0;;;15.4;;
74741;SDS011;76291;48.288;16.314;2024-03-07T03:04:00;21.0;;;15.4;;
74741;SDS011;76291;48.288;16.314;2024-03-07T03:05:00;21.0;;;15.4;;
74741;SDS011;76291;48.288;16.314;2024-03-07T03:06:00;21.0;;;15.4;;
74741;SDS011;76291;48.288;16.314;2024-03-07T03:07:00;23.0;;;15.6;;
74741;SDS011;76291;48.288;16.314;2024-03-07T03:08:00;23.0;;;15.6;;
74741;SDS011;76291;48.288;16.314;2024-03-07T03:09:00;23.0;;;15.6;;
74741;SDS011;76291;48.288;16.314;2024-03-07T03:10:00;23.0;;;15.6;;
74741;SDS011;76291;48.288;16.314;2024-03-07T03:11:00;23.0;;;15.6;;
74741;SDS011;76291;48.288;16.314;2024-03-07T03:12:00;23.2;;;15.8;;
74741;SDS011;76291;48.288;16.314;2024-03-07T03:13:00;23.2;;;15.8;;
74741;SDS011;76291;48.288;16.314;2024-03-07T03:15:00;23.2;;;15.8;;
74741;SDS011;76291;48.288;16.314;2024-03-07T03:16:00;23.2;;;15.8;;
74741;SDS011;76291;48.288;16.314;2024-03-07T03:17:00;21.4;;;15.1;;
74741;SDS011;76291;48.288;16.314;2024-03-07T03:18:00;21.4;;;15.1;;
74741;SDS011;76291;48.288;16.314;2024-03-07T03:19:00;21.4;;;15.1;;
74741;SDS011;76291;48.288;16.314;2024-03-07T03:20:00;21.4;;;15.1;;
74741;SDS011;76291;48.288;16.314;2024-03-07T03:21:01;21.4;;;15.1;;
74741;SDS011;76291;48.288;16.314;2024-03-07T03:22:00;20.6;;;14.5;;
74741;SDS011;76291;48.288;16.314;2024-03-07T03:23:01;20.6;;;14.5;;
74741;SDS011;76291;48.288;16.314;2024-03-07T03:24:00;20.6;;;14.5;;
74741;SDS011;76291;48.288;16.314;2024-03-07T03:25:00;20.6;;;14.5;;
74741;SDS011;76291;48.288;16.314;2024-03-07T03:26:02;20.6;;;14.5;;
74741;SDS011;76291;48.288;16.314;2024-03-07T03:27:00;22.1;;;15.1;;
74741;SDS011;76291;48.288;16.314;2024-03-07T03:28:01;22.1;;;15.1;;
74741;SDS011;76291;48.288;16.314;2024-03-07T03:29:00;22.1;;;15.1;;
74741;SDS011;76291;48.288;16.314;2024-03-07T03:30:00;22.1;;;15.1;;
74741;SDS011;76291;48.288;16.314;2024-03-07T03:31:00;22.1;;;15.1;;
74741;SDS011;76291;48.288;16.314;2024-03-07T03:32:00;20.8;;;14.7;;
74741;SDS011;76291;48.288;16.314;2024-03-07T03:33:00;20.8;;;14.7;;
74741;SDS011;76291;48.288;16.314;2024-03-07T03:34:00;20.8;;;14.7;;
74741;SDS011;76291;48.288;16.314;2024-03-07T03:35:00;20.8;;;14.7;;
74741;SDS011;76291;48.288;16.314;2024-03-07T03:36:00;20.8;;;14.7;;
74741;SDS011;76291;48.288;16.314;2024-03-07T03:37:00;21.3;;;14.4;;
74741;SDS011;76291;48.288;16.314;2024-03-07T03:38:00;21.3;;;14.4;;
74741;SDS011;76291;48.288;16.314;2024-03-07T03:39:00;21.3;;;14.4;;
74741;SDS011;76291;48.288;16.314;2024-03-07T03:40:00;21.3;;;14.4;;
74741;SDS011;76291;48.288;16.314;2024-03-07T03:41:00;21.3;;;14.4;;
74741;SDS011;76291;48.288;16.314;2024-03-07T03:42:00;21.2;;;14.6;;
74741;SDS011;76291;48.288;16.314;2024-03-07T03:43:00;21.2;;;14.6;;
74741;SDS011;76291;48.288;16.314;2024-03-07T03:44:00;21.2;;;14.6;;
74741;SDS011;76291;48.288;16.314;2024-03-07T03:45:00;21.2;;;14.6;;
74741;SDS011;76291;48.288;16.314;2024-03-07T03:46:00;21.2;;;14.6;;
74741;SDS011;76291;48.288;16.314;2024-03-07T03:47:00;20.8;;;14.6;;
74741;SDS011;76291;48.288;16.314;2024-03-07T03:48:00;20.8;;;14.6;;
74741;SDS011;76291;48.288;16.314;2024-03-07T03:49:00;20.8;;;14.6;;
74741;SDS011;76291;48.288;16.314;2024-03-07T03:50:00;20.8;;;14.6;;
74741;SDS011;76291;48.288;16.314;2024-03-07T03:51:00;20.8;;;14.6;;
74741;SDS011;76291;48.288;16.314;2024-03-07T03:52:00;21.4;;;15.0;;
74741;SDS011;76291;48.288;16.314;2024-03-07T03:53:03;21.4;;;15.0;;
74741;SDS011;76291;48.288;16.314;2024-03-07T03:54:00;21.4;;;15.0;;
74741;SDS011;76291;48.288;16.314;2024-03-07T03:55:01;21.4;;;15.0;;
74741;SDS011;76291;48.288;16.314;2024-03-07T03:56:00;21.4;;;15.0;;
74741;SDS011;76291;48.288;16.314;2024-03-07T03:57:00;20.5;;;14.5;;
74741;SDS011;76291;48.288;16.314;2024-03-07T03:58:00;20.5;;;14.5;;
74741;SDS011;76291;48.288;16.314;2024-03-07T03:59:00;20.5;;;14.5;;
74741;SDS011;76291;48.288;16.314;2024-03-07T04:00:00;20.5;;;14.5;;
74741;SDS011;76291;48.288;16.314;2024-03-07T04:01:00;20.5;;;14.5;;
74741;SDS011;76291;48.288;16.314;2024-03-07T04:02:00;20.2;;;13.4;;
74741;SDS011;76291;48.288;16.314;2024-03-07T04:03:00;20.2;;;13.4;;
74741;SDS011;76291;48.288;16.314;2024-03-07T04:04:00;20.2;;;13.4;;
74741;SDS011;76291;48.288;16.314;2024-03-07T04:05:00;20.2;;;13.4;;
74741;SDS011;76291;48.288;16.314;2024-03-07T04:06:00;20.2;;;13.4;;
74741;SDS011;76291;48.288;16.314;2024-03-07T04:07:00;21.1;;;13.9;;
74741;SDS011;76291;48.288;16.314;2024-03-07T04:08:00;21.1;;;13.9;;
74741;SDS011;76291;48.288;16.314;2024-03-07T04:09:00;21.1;;;13.9;;
74741;SDS011;76291;48.288;16.314;2024-03-07T04:10:00;21.1;;;13.9;;
74741;SDS011;76291;48.288;16.314;2024-03-07T04:11:01;21.1;;;13.9;;
74741;SDS011;76291;48.288;16.314;2024-03-07T04:12:00;20.3;;;13.8;;
74741;SDS011;76291;48.288;16.314;2024-03-07T04:13:00;20.3;;;13.8;;
74741;SDS011;76291;48.288;16.314;2024-03-07T04:14:00;20.3;;;13.8;;
74741;SDS011;76291;48.288;16.314;2024-03-07T04:15:00;20.3;;;13.8;;
74741;SDS011;76291;48.288;16.314;2024-03-07T04:16:00;20.3;;;13.8;;
74741;SDS011;76291;48.288;16.314;2024-03-07T04:17:03;18.4;;;13.1;;
74741;SDS011;76291;48.288;16.314;2024-03-07T04:18:00;18.4;;;13.1;;
74741;SDS011;76291;48.288;16.314;2024-03-07T04:19:00;18.4;;;13.1;;
74741;SDS011;76291;48.288;16.314;2024-03-07T04:20:01;18.4;;;13.1;;
74741;SDS011;76291;48.288;16.314;2024-03-07T04:21:00;18.4;;;13.1;;
74741;SDS011;76291;48.288;16.314;2024-03-07T04:22:01;17.7;;;12.7;;
74741;SDS011;76291;48.288;16.314;2024-03-07T04:23:03;17.7;;;12.7;;
74741;SDS011;76291;48.288;16.314;2024-03-07T04:24:00;17.7;;;12.7;;
74741;SDS011;76291;48.288;16.314;2024-03-07T04:25:01;17.7;;;12.7;;
74741;SDS011;76291;48.288;16.314;2024-03-07T04:26:00;17.7;;;12.7;;
74741;SDS011;76291;48.288;16.314;2024-03-07T04:27:01;17.5;;;12.9;;
74741;SDS011;76291;48.288;16.314;2024-03-07T04:28:00;17.5;;;12.9;;
74741;SDS011;76291;48.288;16.314;2024-03-07T04:29:00;17.5;;;12.9;;
74741;SDS011;76291;48.288;16.314;2024-03-07T04:30:00;17.5;;;12.9;;
74741;SDS011;76291;48.288;16.314;2024-03-07T04:31:00;17.5;;;12.9;;
74741;SDS011;76291;48.288;16.314;2024-03-07T04:32:01;18.7;;;13.1;;
74741;SDS011;76291;48.288;16.314;2024-03-07T04:33:00;18.7;;;13.1;;
74741;SDS011;76291;48.288;16.314;2024-03-07T04:34:00;18.7;;;13.1;;
74741;SDS011;76291;48.288;16.314;2024-03-07T04:35:00;18.7;;;13.1;;
74741;SDS011;76291;48.288;16.314;2024-03-07T04:36:00;18.7;;;13.1;;
74741;SDS011;76291;48.288;16.314;2024-03-07T04:37:00;16.6;;;11.9;;
74741;SDS011;76291;48.288;16.314;2024-03-07T04:38:00;16.6;;;11.9;;
74741;SDS011;76291;48.288;16.314;2024-03-07T04:39:00;16.6;;;11.9;;
74741;SDS011;76291;48.288;16.314;2024-03-07T04:40:00;16.6;;;11.9;;
74741;SDS011;76291;48.288;16.314;2024-03-07T04:41:00;16.6;;;11.9;;
74741;SDS011;76291;48.288;16.314;2024-03-07T04:42:02;17.9;;;12.2;;
74741;SDS011;76291;48.288;16.314;2024-03-07T04:43:00;17.9;;;12.2;;
74741;SDS011;76291;48.288;16.314;2024-03-07T04:44:00;17.9;;;12.2;;
74741;SDS011;76291;48.288;16.314;2024-03-07T04:45:00;17.9;;;12.2;;
74741;SDS011;76291;48.288;16.314;2024-03-07T04:46:00;17.9;;;12.2;;
74741;SDS011;76291;48.288;16.314;2024-03-07T04:47:01;16.4;;;12.0;;
74741;SDS011;76291;48.288;16.314;2024-03-07T04:48:00;16.4;;;12.0;;
74741;SDS011;76291;48.288;16.314;2024-03-07T04:49:00;16.4;;;12.0;;
74741;SDS011;76291;48.288;16.314;2024-03-07T04:50:00;16.4;;;12.0;;
74741;SDS011;76291;48.288;16.314;2024-03-07T04:51:00;18.7;;;12.3;;
74741;SDS011;76291;48.288;16.314;2024-03-07T04:52:02;18.7;;;12.3;;
74741;SDS011;76291;48.288;16.314;2024-03-07T04:53:00;18.7;;;12.3;;
74741;SDS011;76291;48.288;16.314;2024-03-07T04:54:00;18.7;;;12.3;;
74741;SDS011;76291;48.288;16.314;2024-03-07T04:55:00;18.7;;;12.3;;
74741;SDS011;76291;48.288;16.314;2024-03-07T04:56:00;20.0;;;12.8;;
74741;SDS011;76291;48.288;16.314;2024-03-07T04:57:01;20.0;;;12.8;;
74741;SDS011;76291;48.288;16.314;2024-03-07T04:58:00;20.0;;;12.8;;
74741;SDS011;76291;48.288;16.314;2024-03-07T04:59:00;20.0;;;12.8;;
74741;SDS011;76291;48.288;16.314;2024-03-07T05:00:00;20.0;;;12.8;;
74741;SDS011;76291;48.288;16.314;2024-03-07T05:01:00;18.9;;;13.5;;
74741;SDS011;76291;48.288;16.314;2024-03-07T05:02:00;18.9;;;13.5;;
74741;SDS011;76291;48.288;16.314;2024-03-07T05:03:00;18.9;;;13.5;;
74741;SDS011;76291;48.288;16.314;2024-03-07T05:04:00;18.9;;;13.5;;
74741;SDS011;76291;48.288;16.314;2024-03-07T05:05:00;18.9;;;13.5;;
74741;SDS011;76291;48.288;16.314;2024-03-07T05:06:00;18.1;;;12.7;;
74741;SDS011;76291;48.288;16.314;2024-03-07T05:07:00;18.1;;;12.7;;
74741;SDS011;76291;48.288;16.314;2024-03-07T05:08:00;18.1;;;12.7;;
74741;SDS011;76291;48.288;16.314;2024-03-07T05:09:05;18.1;;;12.7;;
74741;SDS011;76291;48.288;16.314;2024-03-07T05:10:00;18.1;;;12.7;;
74741;SDS011;76291;48.288;16.314;2024-03-07T05:11:00;19.7;;;12.9;;
74741;SDS011;76291;48.288;16.314;2024-03-07T05:12:00;19.7;;;12.9;;
74741;SDS011;76291;48.288;16.314;2024-03-07T05:13:00;19.7;;;12.9;;
74741;SDS011;76291;48.288;16.314;2024-03-07T05:14:01;19.7;;;12.9;;
74741;SDS011;76291;48.288;16.314;2024-03-07T05:15:00;19.7;;;12.9;;
74741;SDS011;76291;48.288;16.314;2024-03-07T05:16:00;18.2;;;13.2;;
74741;SDS011;76291;48.288;16.314;2024-03-07T05:17:00;18.2;;;13.2;;
74741;SDS011;76291;48.288;16.314;2024-03-07T05:18:00;18.2;;;13.2;;
74741;SDS011;76291;48.288;16.314;2024-03-07T05:19:00;18.2;;;13.2;;
74741;SDS011;76291;48.288;16.314;2024-03-07T05:20:00;18.2;;;13.2;;
74741;SDS011;76291;48.288;16.314;2024-03-07T05:21:00;19.1;;;13.6;;
74741;SDS011;76291;48.288;16.314;2024-03-07T05:22:01;19.1;;;13.6;;
74741;SDS011;76291;48.288;16.314;2024-03-07T05:23:00;19.1;;;13.6;;
74741;SDS011;76291;48.288;16.314;2024-03-07T05:24:00;19.1;;;13.6;;
74741;SDS011;76291;48.288;16.314;2024-03-07T05:25:00;19.1;;;13.6;;
74741;SDS011;76291;48.288;16.314;2024-03-07T05:26:00;20.0;;;13.1;;
74741;SDS011;76291;48.288;16.314;2024-03-07T05:27:01;20.0;;;13.1;;
74741;SDS011;76291;48.288;16.314;2024-03-07T05:28:00;20.0;;;13.1;;
74741;SDS011;76291;48.288;16.314;2024-03-07T05:29:01;20.0;;;13.1;;
74741;SDS011;76291;48.288;16.314;2024-03-07T05:30:00;20.0;;;13.1;;
74741;SDS011;76291;48.288;16.314;2024-03-07T05:31:00;18.0;;;13.5;;
74741;SDS011;76291;48.288;16.314;2024-03-07T05:32:20;18.0;;;13.5;;
74741;SDS011;76291;48.288;16.314;2024-03-07T05:33:00;18.0;;;13.5;;
74741;SDS011;76291;48.288;16.314;2024-03-07T05:34:01;18.0;;;13.5;;
74741;SDS011;76291;48.288;16.314;2024-03-07T05:35:00;18.0;;;13.5;;
74741;SDS011;76291;48.288;16.314;2024-03-07T05:36:00;19.3;;;13.4;;
74741;SDS011;76291;48.288;16.314;2024-03-07T05:37:00;19.3;;;13.4;;
74741;SDS011;76291;48.288;16.314;2024-03-07T05:38:00;19.3;;;13.4;;
74741;SDS011;76291;48.288;16.314;2024-03-07T05:39:00;19.3;;;13.4;;
74741;SDS011;76291;48.288;16.314;2024-03-07T05:40:00;19.3;;;13.4;;
74741;SDS011;76291;48.288;16.314;2024-03-07T05:41:00;20.0;;;13.1;;
74741;SDS011;76291;48.288;16.314;2024-03-07T05:42:00;20.0;;;13.1;;
74741;SDS011;76291;48.288;16.314;2024-03-07T05:43:00;20.0;;;13.1;;
74741;SDS011;76291;48.288;16.314;2024-03-07T05:44:00;20.0;;;13.1;;
74741;SDS011;76291;48.288;16.314;2024-03-07T05:45:00;20.0;;;13.1;;
74741;SDS011;76291;48.288;16.314;2024-03-07T05:46:00;19.4;;;13.5;;
74741;SDS011;76291;48.288;16.314;2024-03-07T05:47:00;19.4;;;13.5;;
74741;SDS011;76291;48.288;16.314;2024-03-07T05:48:14;19.4;;;13.5;;
74741;SDS011;76291;48.288;16.314;2024-03-07T05:49:00;19.4;;;13.5;;
74741;SDS011;76291;48.288;16.314;2024-03-07T05:50:00;19.4;;;13.5;;
74741;SDS011;76291;48.288;16.314;2024-03-07T05:51:00;19.0;;;13.4;;
74741;SDS011;76291;48.288;16.314;2024-03-07T05:52:00;19.0;;;13.4;;
74741;SDS011;76291;48.288;16.314;2024-03-07T05:53:00;19.0;;;13.4;;
74741;SDS011;76291;48.288;16.314;2024-03-07T05:54:00;19.0;;;13.4;;
74741;SDS011;76291;48.288;16.314;2024-03-07T05:55:00;19.0;;;13.4;;
74741;SDS011;76291;48.288;16.314;2024-03-07T05:56:00;18.5;;;13.5;;
74741;SDS011;76291;48.288;16.314;2024-03-07T05:57:02;18.5;;;13.5;;